Rios Canyon (246) Station Data

Red Flag Warning: No
Fire Weather Zone: 250
SDGE Region: Eastern
Lat/Lon: 32.843/-116.881

Observations

Time Wind Speed/Gust Temp(F) RH Fuel Moist Fuel Temp(F) Dewpt(F) Tmax(F) Tmin(F) Accum Precip 10-min Precip SL Press(mb)
5/24 8:20am 250 4 G 8 63° 74% - - 55° 64.2° 56.1° - - 1013.0
5/24 8:10am 17 2 G 7 63° 74% - - 55° 64.2° 56.1° - - 1012.0
5/24 8:00am 22 3 G 6 62° 79% - - 55° 62.5° 56.1° - - 1012.0
5/24 7:50am 352 1 G 3 62° 82% - - 56° 62° 56.1° - - 1013.0
5/24 7:40am 84 1 G 4 61° 87% - - 57° 61.8° 56.1° - - 1013.0
5/24 7:30am 67 1 G 4 60° 93% - - 58° 61.4° 56.1° - - 1013.0
5/24 7:20am 205 1 G 3 59° 94% - - 58° 61.4° 56.1° - - 1013.0
5/24 7:10am 27 2 G 4 59° 95% - - 58° 61.4° 56.1° - - 1013.0
5/24 7:00am 107 2 G 3 59° 96% - - 57° 61.4° 56.1° - - 1013.0
5/24 6:50am 102 2 G 4 59° 96% - - 57° 61.4° 56.1° - - 1013.0
5/24 6:40am 155 1 G 3 58° 97% - - 57° 61.4° 56.1° - - 1013.0
5/24 6:30am 210 4 G 8 58° 97% - - 57° 61.4° 56.1° - - 1013.0
5/24 6:20am 256 4 G 7 58° 97% - - 57° 61.4° 56.1° - - 1013.0
5/24 6:10am 260 4 G 7 58° 98% - - 57° 61.4° 56.1° - - 1012.0
5/24 6:00am 242 4 G 8 58° 98% - - 57° 61.4° 56.1° - - 1012.0
5/24 5:50am 204 3 G 7 57° 98% - - 56° 61.4° 56.1° - - 1012.0
5/24 5:40am 158 0 G 2 57° 97% - - 56° 61.4° 56.1° - - 1012.0
5/24 5:30am 215 1 G 3 57° 97% - - 56° 61.4° 56.1° - - 1012.0
5/24 5:20am 142 1 G 1 57° 97% - - 57° 61.4° 56.1° - - 1012.0
5/24 5:10am 126 1 G 2 58° 97% - - 57° 61.4° 56.1° - - 1012.0
5/24 5:00am 48 2 G 5 58° 98% - - 57° 61.4° 56.1° - - 1012.0
5/24 4:50am 97 2 G 5 58° 97% - - 57° 61.4° 56.1° - - 1012.0
5/24 4:40am 64 3 G 5 59° 97% - - 58° 61.4° 56.1° - - 1012.0
5/24 4:30am 101 3 G 6 59° 97% - - 58° 61.4° 56.1° - - 1013.0
5/24 4:20am 126 2 G 4 59° 97% - - 58° 61.4° 56.1° - - 1013.0
5/24 4:10am 111 3 G 4 59° 97% - - 58° 61.4° 56.1° - - 1013.0
5/24 4:00am 123 3 G 5 59° 96% - - 58° 61.4° 56.1° - - 1013.0
5/24 3:50am 143 2 G 4 58° 96% - - 57° 61.4° 56.1° - - 1013.0
5/24 3:40am 157 2 G 4 58° 96% - - 57° 61.4° 56.1° - - 1013.0
5/24 3:30am 136 2 G 4 58° 96% - - 57° 61.4° 56.1° - - 1013.0
5/24 3:20am 254 2 G 4 59° 96% - - 58° 61.4° 56.1° - - 1013.0
5/24 3:10am 244 2 G 5 59° 96% - - 57° 61.4° 56.1° - - 1013.0
5/24 3:00am 238 2 G 5 58° 96% - - 57° 61.4° 56.1° - - 1013.0
5/24 2:50am 179 2 G 4 57° 95% - - 56° 61.4° 56.1° - - 1013.0
5/24 2:40am 123 1 G 2 57° 94% - - 55° 61.4° 56.1° - - 1013.0
5/24 2:30am 119 1 G 2 57° 94% - - 55° 61.4° 56.2° - - 1013.0
5/24 2:20am 122 1 G 1 57° 93% - - 55° 61.4° 56.3° - - 1013.0
5/24 2:10am 107 1 G 2 57° 93% - - 55° 61.4° 56.9° - - 1013.0
5/24 2:00am 79 1 G 2 58° 93% - - 56° 61.4° 57.5° - - 1013.0
5/24 1:50am 108 1 G 2 58° 93% - - 56° 61.4° 57.5° - - 1013.0
5/24 1:40am 123 0 G 1 58° 93% - - 56° 61.4° 57.8° - - 1013.0
5/24 1:30am 125 0 G 2 58° 92% - - 56° 61.4° 57.8° - - 1013.0
5/24 1:20am 119 2 G 3 58° 90% - - 55° 61.4° 57.9° - - 1013.0
5/24 1:10am 127 1 G 2 59° 87% - - 55° 61.4° 58.3° - - 1013.0
5/24 1:00am 0 0 G 0 59° 86% - - 55° 61.4° 59.1° - - 1013.0
5/24 12:50am 128 1 G 3 60° 83% - - 55° 61.4° 59.4° - - 1014.0
5/24 12:40am 172 1 G 2 60° 80% - - 54° 61.4° 59.9° - - 1014.0
5/24 12:30am 185 1 G 2 61° 79% - - 55° 61.4° 60.3° - - 1014.0
5/24 12:20am 113 0 G 2 61° 79% - - 54° 61.4° 60.3° - - 1014.0
5/24 12:10am 120 2 G 4 61° 77% - - 54° 61.4° 60.6° - - 1014.0
5/24 12:00am 91 2 G 3 61° 77% - - 54° 88.2° 54.1° - - 1014.0
5/23 11:50pm 121 2 G 2 62° 76% - - 54° 88.2° 54.1° - - 1014.0
5/23 11:40pm 93 2 G 3 62° 76% - - 55° 88.2° 54.1° - - 1014.0
5/23 11:30pm 103 1 G 2 62° 76% - - 54° 88.2° 54.1° - - 1014.0
5/23 11:20pm 108 2 G 3 62° 75% - - 54° 88.2° 54.1° - - 1014.0
5/23 11:10pm 95 1 G 1 62° 74% - - 54° 88.2° 54.1° - - 1014.0
5/23 11:00pm 127 1 G 2 63° 72% - - 54° 88.2° 54.1° - - 1014.0
5/23 10:50pm 103 1 G 2 64° 70% - - 54° 88.2° 54.1° - - 1014.0
5/23 10:40pm 82 1 G 2 65° 69% - - 54° 88.2° 54.1° - - 1014.0
5/23 10:30pm 74 2 G 3 65° 68% - - 54° 88.2° 54.1° - - 1013.0
5/23 10:20pm 90 2 G 3 65° 67% - - 54° 88.2° 54.1° - - 1013.0
5/23 10:10pm 84 1 G 2 66° 65% - - 54° 88.2° 54.1° - - 1013.0
5/23 10:00pm 99 1 G 2 66° 65% - - 54° 88.2° 54.1° - - 1013.0
5/23 9:50pm 114 2 G 4 66° 64% - - 54° 88.2° 54.1° - - 1013.0
5/23 9:40pm 114 2 G 3 67° 63% - - 54° 88.2° 54.1° - - 1013.0
5/23 9:30pm 110 2 G 3 67° 62% - - 54° 88.2° 54.1° - - 1013.0
5/23 9:20pm 91 2 G 3 68° 60% - - 54° 88.2° 54.1° - - 1013.0
5/23 9:10pm 109 1 G 3 68° 60% - - 54° 88.2° 54.1° - - 1013.0
5/23 9:00pm 109 1 G 2 69° 59% - - 54° 88.2° 54.1° - - 1013.0
5/23 8:50pm 105 1 G 2 70° 58% - - 54° 88.2° 54.1° - - 1013.0
5/23 8:40pm 127 2 G 2 71° 55% - - 54° 88.2° 54.1° - - 1013.0
5/23 8:30pm 197 2 G 6 73° 52% - - 54° 88.2° 54.1° - - 1013.0
5/23 8:20pm 241 3 G 6 74° 51% - - 54° 88.2° 54.1° - - 1013.0
5/23 8:10pm 224 1 G 3 75° 48% - - 54° 88.2° 54.1° - - 1013.0
5/23 8:00pm 245 1 G 3 76° 46% - - 54° 88.2° 54.1° - - 1012.0
5/23 7:50pm 241 2 G 3 77° 44% - - 53° 88.2° 54.1° - - 1012.0
5/23 7:40pm 244 2 G 5 77° 42% - - 52° 88.2° 54.1° - - 1012.0
5/23 7:30pm 230 2 G 5 78° 40% - - 52° 88.2° 54.1° - - 1012.0
5/23 7:20pm 241 3 G 5 78° 39% - - 51° 88.2° 54.1° - - 1012.0
5/23 7:10pm 250 4 G 8 79° 38% - - 51° 88.2° 54.1° - - 1012.0
5/23 7:00pm 250 4 G 8 80° 36% - - 50° 88.2° 54.1° - - 1012.0
5/23 6:50pm 238 4 G 8 80° 36% - - 50° 88.2° 54.1° - - 1012.0
5/23 6:40pm 245 6 G 11 80° 35% - - 50° 88.2° 54.1° - - 1012.0
5/23 6:30pm 248 5 G 10 81° 34% - - 50° 88.2° 54.1° - - 1012.0
5/23 6:20pm 203 5 G 13 82° 34% - - 51° 88.2° 54.1° - - 1012.0
5/23 6:10pm 210 6 G 12 82° 34% - - 51° 88.2° 54.1° - - 1012.0
5/23 6:00pm 208 5 G 11 83° 35% - - 52° 88.2° 54.1° - - 1012.0
5/23 5:50pm 211 6 G 12 85° 30% - - 51° 88.2° 54.1° - - 1011.0
5/23 5:40pm 252 6 G 11 86° 26% - - 47° 88.2° 54.1° - - 1011.0
5/23 5:30pm 262 6 G 10 87° 24% - - 46° 88.2° 54.1° - - 1011.0
5/23 5:20pm 252 4 G 10 87° 23% - - 44° 88.2° 54.1° - - 1012.0
5/23 5:10pm 248 4 G 8 87° 23% - - 45° 88.2° 54.1° - - 1012.0
5/23 5:00pm 233 3 G 7 87° 24% - - 46° 88.2° 54.1° - - 1012.0
5/23 4:50pm 232 3 G 7 86° 25% - - 47° 88.2° 54.1° - - 1012.0
5/23 4:40pm 271 3 G 8 86° 27% - - 47° 88.2° 54.1° - - 1012.0
5/23 4:30pm 251 4 G 8 85° 27% - - 48° 88.2° 54.1° - - 1012.0
5/23 4:20pm 246 4 G 8 85° 29% - - 49° 88.2° 54.1° - - 1012.0
5/23 4:10pm 241 4 G 9 85° 29% - - 49° 88.2° 54.1° - - 1013.0
5/23 4:00pm 241 3 G 7 84° 30% - - 49° 88.2° 54.1° - - 1013.0
5/23 3:50pm 272 3 G 7 84° 30% - - 50° 88.2° 54.1° - - 1013.0
5/23 3:40pm 267 3 G 8 83° 33% - - 51° 88.2° 54.1° - - 1013.0
5/23 3:30pm 197 3 G 6 83° 36% - - 53° 88.2° 54.1° - - 1013.0
5/23 3:20pm 234 3 G 6 82° 39% - - 54° 88.2° 54.1° - - 1013.0
5/23 3:10pm 272 4 G 8 81° 40% - - 54° 88.2° 54.1° - - 1013.0
5/23 3:00pm 264 4 G 7 80° 41% - - 54° 88.2° 54.1° - - 1014.0
5/23 2:50pm 278 5 G 10 79° 43% - - 55° 88.2° 54.1° - - 1014.0
5/23 2:40pm 273 6 G 11 80° 43% - - 55° 88.2° 54.1° - - 1014.0
5/23 2:30pm 280 6 G 11 79° 43% - - 55° 88.2° 54.1° - - 1014.0
5/23 2:20pm 261 4 G 9 79° 43% - - 55° 88.2° 54.1° - - 1014.0
5/23 2:10pm 252 5 G 9 79° 43% - - 55° 88.2° 54.1° - - 1014.0
5/23 2:00pm 253 6 G 11 79° 44% - - 55° 88.2° 54.1° - - 1014.0
5/23 1:50pm 275 7 G 13 78° 45% - - 55° 88.2° 54.1° - - 1014.0
5/23 1:40pm 258 6 G 13 78° 45% - - 55° 88.2° 54.1° - - 1014.0
5/23 1:30pm 260 6 G 12 79° 45% - - 56° 88.2° 54.1° - - 1014.0
5/23 1:20pm 267 7 G 14 78° 45% - - 56° 88.2° 54.1° - - 1014.0
5/23 1:10pm 264 7 G 13 78° 46% - - 56° 88.2° 54.1° - - 1014.0
5/23 1:00pm 270 7 G 13 79° 45% - - 56° 88.2° 54.1° - - 1014.0
5/23 12:50pm 276 8 G 14 79° 45% - - 56° 88.2° 54.1° - - 1014.0
5/23 12:40pm 275 9 G 15 79° 45% - - 56° 88.2° 54.1° - - 1014.0
5/23 12:30pm 277 8 G 14 80° 43% - - 56° 88.2° 54.1° - - 1014.0
5/23 12:20pm 277 8 G 18 81° 41% - - 55° 88.2° 54.1° - - 1013.0
5/23 12:10pm 244 7 G 11 83° 37% - - 54° 88.2° 54.1° - - 1013.0
5/23 12:00pm 237 6 G 10 84° 36% - - 53° 88.2° 54.1° - - 1013.0
5/23 11:50am 238 7 G 14 85° 34% - - 53° 88.2° 54.1° - - 1013.0
5/23 11:40am 239 5 G 12 87° 24% - - 46° 88.2° 54.1° - - 1013.0
5/23 11:30am 225 5 G 8 88° 20% - - 41° 88.2° 54.1° - - 1013.0
5/23 11:20am 229 5 G 9 87° 20% - - 41° 87.5° 54.1° - - 1013.0
5/23 11:10am 217 5 G 8 86° 22% - - 43° 87.3° 54.1° - - 1013.0
5/23 11:00am 229 5 G 10 86° 26% - - 46° 86° 54.1° - - 1013.0
5/23 10:50am 235 4 G 9 85° 27% - - 47° 86° 54.1° - - 1013.0
5/23 10:40am 254 4 G 9 84° 26% - - 45° 84.6° 54.1° - - 1013.0
5/23 10:30am 230 3 G 6 83° 30% - - 48° 83.5° 54.1° - - 1013.0
5/23 10:20am 219 3 G 6 82° 32% - - 49° 82.9° 54.1° - - 1013.0
5/23 10:10am 235 2 G 5 82° 34% - - 50° 82.4° 54.1° - - 1013.0
5/23 10:00am 266 1 G 5 80° 37% - - 51° 80.6° 54.1° - - 1013.0
5/23 9:50am 303 1 G 4 77° 42% - - 53° 78.4° 54.1° - - 1013.0
5/23 9:40am 243 2 G 4 76° 45% - - 53° 76.1° 54.1° - - 1014.0
5/23 9:30am 201 2 G 4 75° 48% - - 53° 75.9° 54.1° - - 1014.0
5/23 9:20am 233 2 G 5 73° 51% - - 54° 73.9° 54.1° - - 1014.0
5/23 9:10am 211 2 G 4 72° 54% - - 54° 72.9° 54.1° - - 1014.0
5/23 9:00am 242 2 G 3 70° 56% - - 54° 70.8° 54.1° - - 1014.0
5/23 8:50am 241 2 G 5 69° 60% - - 54° 69.4° 54.1° - - 1014.0
5/23 8:40am 243 2 G 4 68° 61% - - 54° 68.6° 54.1° - - 1014.0
5/23 8:30am 212 1 G 3 67° 66% - - 55° 67.8° 54.1° - - 1014.0
5/23 8:20am 68 1 G 2 65° 73% - - 56° 65.8° 54.1° - - 1014.0
5/23 8:10am 83 1 G 3 63° 78% - - 56° 63.6° 54.1° - - 1015.0
5/23 8:00am 171 1 G 2 62° 83% - - 56° 62.3° 54.1° - - 1015.0
5/23 7:50am 271 1 G 3 60° 88% - - 57° 61.1° 54.1° - - 1015.0
5/23 7:40am 260 2 G 4 60° 89% - - 57° 60.8° 54.1° - - 1015.0
5/23 7:30am 214 2 G 3 60° 92% - - 57° 60.8° 54.1° - - 1015.0
5/23 7:20am 230 1 G 3 59° 94% - - 57° 60.8° 54.1° - - 1015.0
5/23 7:10am 241 1 G 3 59° 95% - - 57° 60.8° 54.1° - - 1015.0
5/23 7:00am 116 1 G 2 58° 95% - - 56° 60.8° 54.1° - - 1015.0
5/23 6:50am 104 1 G 1 57° 96% - - 56° 60.8° 54.1° - - 1015.0
5/23 6:40am 104 1 G 1 56° 96% - - 55° 60.8° 54.1° - - 1015.0
5/23 6:30am 128 0 G 1 55° 96% - - 54° 60.8° 54.1° - - 1015.0
5/23 6:20am 135 0 G 1 55° 96% - - 54° 60.8° 54.1° - - 1015.0
5/23 6:10am 129 1 G 2 54° 96% - - 53° 60.8° 54.1° - - 1015.0
5/23 6:00am 122 1 G 2 55° 96% - - 54° 60.8° 54.1° - - 1015.0